Time;durP1;ratioP1;P1;durP2;ratioP2;P2;SDS_P1;SDS_P2;PMS_P1;PMS_P2;Temp;Humidity;BMP_temperature;BMP_pressure;BME280_temperature;BME280_humidity;BME280_pressure;Samples;Min_cycle;Max_cycle;Signal;HPM_P1;HPM_P2
2022/06/09 00:01:35;;;;;;;4.47;3.22;;;20.10;67.40;;;;;;2471235;56;21137;-74
2022/06/09 00:04:13;;;;;;;3.25;2.87;;;20.00;67.20;;;;;;2244563;60;21081;-75
2022/06/09 00:06:43;;;;;;;4.57;2.97;;;20.10;67.30;;;;;;2469947;56;21109;-72
2022/06/09 00:09:12;;;;;;;4.28;2.83;;;20.10;67.30;;;;;;2261138;59;21063;-74
2022/06/09 00:11:48;;;;;;;3.80;3.00;;;20.10;67.40;;;;;;2500955;55;21075;-74
2022/06/09 00:14:16;;;;;;;5.90;3.30;;;20.10;67.60;;;;;;2500411;55;21131;-74
2022/06/09 00:16:44;;;;;;;5.55;3.37;;;20.10;67.40;;;;;;2500912;55;21206;-73
2022/06/09 00:19:13;;;;;;;5.50;3.28;;;20.10;67.50;;;;;;2270735;59;21067;-75
2022/06/09 00:21:40;;;;;;;6.55;3.33;;;20.10;67.30;;;;;;2501300;55;21055;-74
2022/06/09 00:24:08;;;;;;;5.45;2.87;;;20.10;67.40;;;;;;2270343;59;21125;-74
2022/06/09 00:26:36;;;;;;;8.25;3.08;;;20.10;67.50;;;;;;2269560;59;21063;-74
2022/06/09 00:29:05;;;;;;;3.12;2.83;;;20.10;67.40;;;;;;2270504;59;21070;-73
2022/06/09 00:31:33;;;;;;;6.28;3.35;;;20.10;67.40;;;;;;2270667;59;21122;-74
2022/06/09 00:34:00;;;;;;;3.85;2.70;;;20.10;67.40;;;;;;2270967;59;21071;-74
2022/06/09 00:36:29;;;;;;;4.10;3.28;;;20.10;67.40;;;;;;2500666;55;21059;-74
2022/06/09 00:38:57;;;;;;;4.18;2.97;;;20.00;67.40;;;;;;2270848;59;21071;-74
2022/06/09 00:41:25;;;;;;;3.17;2.40;;;20.10;67.50;;;;;;2271216;59;21123;-74
2022/06/09 00:43:53;;;;;;;6.50;3.12;;;20.00;67.50;;;;;;2268950;59;21070;-74
2022/06/09 00:46:24;;;;;;;4.40;2.67;;;20.00;67.40;;;;;;2500932;55;21100;-74
2022/06/09 00:48:55;;;;;;;6.80;2.55;;;20.00;67.40;;;;;;2501630;55;21075;-74
2022/06/09 00:51:35;;;;;;;5.62;2.47;;;20.00;67.30;;;;;;2270818;59;21585;-75
2022/06/09 00:54:08;;;;;;;7.50;2.83;;;20.00;67.40;;;;;;2270877;59;21546;-74
2022/06/09 00:56:40;;;;;;;2.85;2.45;;;20.00;67.40;;;;;;2270063;59;21087;-74
2022/06/09 00:59:12;;;;;;;3.67;2.50;;;20.00;67.40;;;;;;2270680;59;21071;-74
2022/06/09 01:01:40;;;;;;;3.90;2.35;;;20.00;67.40;;;;;;2268681;59;21114;-74
2022/06/09 01:04:11;;;;;;;3.45;2.40;;;20.00;67.50;;;;;;2501398;55;21094;-74
2022/06/09 01:06:44;;;;;;;4.18;2.65;;;20.00;67.60;;;;;;2270501;59;21553;-74
2022/06/09 01:09:13;;;;;;;2.45;2.10;;;20.00;67.70;;;;;;2271116;59;21528;-74
2022/06/09 01:11:42;;;;;;;4.75;2.03;;;20.00;67.80;;;;;;2270805;59;21047;-74
2022/06/09 01:14:13;;;;;;;6.00;2.55;;;19.90;67.70;;;;;;2270304;59;21059;-74
2022/06/09 01:16:51;;;;;;;2.95;2.30;;;19.90;67.80;;;;;;2270916;59;21054;-74
2022/06/09 01:19:40;;;;;;;3.80;2.47;;;19.90;67.90;;;;;;2270316;59;21127;-75
2022/06/09 01:22:32;;;;;;;4.97;2.50;;;19.90;68.00;;;;;;2271001;59;21118;-74
2022/06/09 01:25:29;;;;;;;5.68;2.17;;;19.90;67.80;;;;;;2270455;59;22179;-74
2022/06/09 01:28:50;;;;;;;4.03;2.50;;;19.90;67.80;;;;;;2270377;59;21127;-74
2022/06/09 01:34:01;;;;;;;2.78;2.15;;;19.90;67.90;;;;;;2334772;57;27845;-74
2022/06/09 01:36:36;;;;;;;3.53;2.45;;;19.50;70.50;;;;;;2346737;57;21049;-73
2022/06/09 01:39:05;;;;;;;6.32;2.75;;;19.70;69.50;;;;;;2363170;56;21094;-74
2022/06/09 01:41:33;;;;;;;3.83;2.45;;;19.80;68.70;;;;;;2374983;56;21039;-74
2022/06/09 01:44:01;;;;;;;3.80;2.65;;;19.80;68.30;;;;;;2627616;52;21050;-73
2022/06/09 01:46:32;;;;;;;2.70;2.28;;;19.80;68.10;;;;;;2374290;56;21039;-73
2022/06/09 01:49:04;;;;;;;4.72;2.47;;;19.80;68.10;;;;;;2374507;56;21046;-74
2022/06/09 01:51:36;;;;;;;5.35;2.45;;;19.80;68.20;;;;;;2374405;56;21105;-73
2022/06/09 01:54:09;;;;;;;3.13;2.47;;;19.80;68.30;;;;;;2374990;56;21536;-74
2022/06/09 01:56:43;;;;;;;6.57;2.80;;;19.80;68.30;;;;;;2374772;56;21612;-73
2022/06/09 01:59:20;;;;;;;3.85;1.73;;;19.80;68.20;;;;;;2375051;56;21030;-74
2022/06/09 02:01:53;;;;;;;3.53;2.50;;;19.80;68.50;;;;;;2375204;56;21687;-73
2022/06/09 02:04:24;;;;;;;5.12;2.62;;;19.80;68.40;;;;;;2374751;56;21034;-74
2022/06/09 02:06:54;;;;;;;3.10;2.50;;;19.80;68.50;;;;;;2374311;56;21043;-73
2022/06/09 02:09:26;;;;;;;5.15;3.00;;;19.80;68.60;;;;;;2374005;56;21624;-72
2022/06/09 02:11:57;;;;;;;5.65;2.65;;;19.70;68.70;;;;;;2374638;56;21063;-73
2022/06/09 02:14:28;;;;;;;4.80;2.50;;;19.70;68.80;;;;;;2374925;56;21600;-73
2022/06/09 02:16:57;;;;;;;3.10;2.55;;;19.70;68.80;;;;;;2374042;56;22123;-74
2022/06/09 02:19:25;;;;;;;6.22;3.15;;;19.70;68.70;;;;;;2627416;52;21031;-74
2022/06/09 02:21:53;;;;;;;5.53;3.12;;;19.70;68.60;;;;;;2374873;56;21059;-74
2022/06/09 02:24:20;;;;;;;3.35;3.00;;;19.70;68.60;;;;;;2373969;56;21285;-73
2022/06/09 02:26:48;;;;;;;3.53;3.00;;;19.60;68.50;;;;;;2374529;56;21549;-73
2022/06/09 02:29:15;;;;;;;6.10;3.42;;;19.70;68.70;;;;;;2374667;56;21114;-74
2022/06/09 02:31:44;;;;;;;6.22;3.37;;;19.60;68.60;;;;;;2374652;56;21035;-74
2022/06/09 02:34:13;;;;;;;7.62;4.00;;;19.60;68.70;;;;;;2375101;56;21070;-74
2022/06/09 02:36:40;;;;;;;4.37;3.37;;;19.60;68.90;;;;;;2374747;56;21047;-74
2022/06/09 02:39:08;;;;;;;5.55;3.60;;;19.60;69.10;;;;;;2374833;56;21126;-74
2022/06/09 02:41:36;;;;;;;4.70;3.40;;;19.60;69.40;;;;;;2373695;56;21109;-73
2022/06/09 02:44:04;;;;;;;4.95;3.67;;;19.50;69.30;;;;;;2374205;56;21050;-74
2022/06/09 02:46:32;;;;;;;4.30;2.90;;;19.50;69.40;;;;;;2373212;56;21210;-73
2022/06/09 02:49:00;;;;;;;3.85;3.00;;;19.50;69.40;;;;;;2374208;56;22174;-74
2022/06/09 02:51:30;;;;;;;7.25;4.12;;;19.50;69.50;;;;;;2373746;56;21051;-73
2022/06/09 02:53:59;;;;;;;4.50;3.60;;;19.50;69.50;;;;;;2373672;56;21118;-74
2022/06/09 02:56:27;;;;;;;4.40;3.72;;;19.60;69.60;;;;;;2373661;56;21358;-74
2022/06/09 02:58:56;;;;;;;5.07;3.85;;;19.50;69.40;;;;;;2373273;56;21631;-72
2022/06/09 03:01:25;;;;;;;6.65;4.28;;;19.50;69.40;;;;;;2373714;56;21055;-74
2022/06/09 03:03:54;;;;;;;4.03;3.67;;;19.50;69.40;;;;;;2374035;56;21577;-74
2022/06/09 03:06:21;;;;;;;8.00;4.32;;;19.50;69.60;;;;;;2373465;56;21058;-73
2022/06/09 03:08:50;;;;;;;8.20;3.50;;;19.50;69.70;;;;;;2627164;52;21600;-74
2022/06/09 03:11:18;;;;;;;7.62;4.07;;;19.50;69.80;;;;;;2373102;56;21601;-74
2022/06/09 03:13:46;;;;;;;7.85;4.32;;;19.40;69.80;;;;;;2372892;56;21070;-74
2022/06/09 03:16:16;;;;;;;6.87;4.68;;;19.40;69.90;;;;;;2372968;56;21058;-72
2022/06/09 03:18:45;;;;;;;4.85;4.35;;;19.40;69.90;;;;;;2373044;56;21093;-73
2022/06/09 03:21:13;;;;;;;6.47;4.60;;;19.40;70.00;;;;;;2373880;56;21035;-73
2022/06/09 03:23:41;;;;;;;6.72;3.90;;;19.40;70.00;;;;;;2373905;56;21553;-73
2022/06/09 03:26:09;;;;;;;5.70;4.45;;;19.40;70.10;;;;;;2372855;56;21047;-74
2022/06/09 03:28:37;;;;;;;6.55;4.60;;;19.40;70.20;;;;;;2373961;56;21043;-74
2022/06/09 03:31:05;;;;;;;8.07;3.92;;;19.40;70.30;;;;;;2372990;56;21629;-74
2022/06/09 03:33:32;;;;;;;8.02;3.95;;;19.40;70.90;;;;;;2373867;56;21676;-73
2022/06/09 03:36:02;;;;;;;6.60;4.18;;;19.40;70.20;;;;;;2625912;52;21547;-74
2022/06/09 03:38:30;;;;;;;5.50;4.00;;;19.40;70.40;;;;;;2626622;52;21130;-74
2022/06/09 03:40:57;;;;;;;6.47;4.05;;;19.30;70.30;;;;;;2373745;56;21054;-73
2022/06/09 03:43:25;;;;;;;7.28;3.80;;;19.30;70.50;;;;;;2373673;56;21035;-74
2022/06/09 03:45:53;;;;;;;5.15;3.70;;;19.30;70.50;;;;;;2371840;56;21353;-73
2022/06/09 03:48:21;;;;;;;5.87;3.33;;;19.30;70.60;;;;;;2372662;56;21545;-73
2022/06/09 03:50:48;;;;;;;5.68;3.15;;;19.30;70.30;;;;;;2372784;56;21129;-73
2022/06/09 03:53:16;;;;;;;6.95;3.37;;;19.30;70.20;;;;;;2373075;56;21059;-73
2022/06/09 03:55:43;;;;;;;4.62;2.70;;;19.30;70.10;;;;;;2373430;56;21054;-73
2022/06/09 03:58:11;;;;;;;4.93;3.15;;;19.30;70.20;;;;;;2373087;56;21641;-73
2022/06/09 04:00:38;;;;;;;5.90;3.30;;;19.30;70.20;;;;;;2373005;56;21634;-73
2022/06/09 04:03:06;;;;;;;4.57;2.67;;;19.30;70.20;;;;;;2373484;56;21054;-74
2022/06/09 04:05:34;;;;;;;5.75;2.70;;;19.40;70.40;;;;;;2373396;56;21063;-74
2022/06/09 04:08:02;;;;;;;3.45;2.75;;;19.40;70.10;;;;;;2373696;56;21223;-73
2022/06/09 04:10:31;;;;;;;3.40;3.10;;;19.40;69.90;;;;;;2373604;56;21110;-73
2022/06/09 04:12:59;;;;;;;4.43;3.05;;;19.40;69.50;;;;;;2373764;56;21703;-74
2022/06/09 04:15:27;;;;;;;4.15;2.70;;;19.40;69.50;;;;;;2372904;56;21540;-73
2022/06/09 04:17:54;;;;;;;5.37;2.58;;;19.30;69.70;;;;;;2373164;56;21046;-74
2022/06/09 04:20:24;;;;;;;3.03;2.40;;;19.40;69.50;;;;;;2626220;52;21549;-74
2022/06/09 04:22:52;;;;;;;3.03;2.47;;;19.40;69.40;;;;;;2371907;56;21027;-73
2022/06/09 04:25:21;;;;;;;3.53;2.50;;;19.40;69.10;;;;;;2370293;56;21054;-73
2022/06/09 04:27:48;;;;;;;3.87;3.00;;;19.40;69.10;;;;;;2370838;56;21063;-73
2022/06/09 04:30:16;;;;;;;4.28;3.40;;;19.40;69.70;;;;;;2372426;56;21191;-74
2022/06/09 04:32:44;;;;;;;4.32;3.33;;;19.40;69.00;;;;;;2372710;56;21086;-74
2022/06/09 04:35:12;;;;;;;6.65;4.78;;;19.40;69.20;;;;;;2372367;56;21043;-72
2022/06/09 04:40:27;;;;;;;9.20;5.00;;;19.40;69.40;;;;;;2373030;56;21115;-74
2022/06/09 04:42:55;;;;;;;7.15;4.30;;;19.30;69.40;;;;;;2373741;56;21051;-73
2022/06/09 04:45:23;;;;;;;6.45;5.07;;;19.40;69.20;;;;;;2372882;56;21518;-73
2022/06/09 04:47:50;;;;;;;8.02;4.72;;;19.40;69.30;;;;;;2372623;56;21042;-74
2022/06/09 04:50:18;;;;;;;8.50;5.60;;;19.40;69.40;;;;;;2373071;56;21429;-72
2022/06/09 04:52:47;;;;;;;8.73;6.07;;;19.40;69.70;;;;;;2626370;52;21119;-72
2022/06/09 04:55:15;;;;;;;13.25;7.37;;;19.40;69.60;;;;;;2625721;52;21522;-73
2022/06/09 04:57:42;;;;;;;9.60;6.15;;;19.40;69.60;;;;;;2373296;56;21185;-73
2022/06/09 05:00:13;;;;;;;11.40;6.72;;;19.40;69.70;;;;;;2373247;56;21455;-73
2022/06/09 05:02:41;;;;;;;10.18;6.55;;;19.50;69.90;;;;;;2373896;56;21605;-74
2022/06/09 05:05:16;;;;;;;9.75;7.75;;;19.50;69.90;;;;;;2373476;56;21700;-73
2022/06/09 05:07:44;;;;;;;9.40;7.05;;;19.50;69.90;;;;;;2372400;56;21043;-73
2022/06/09 05:10:11;;;;;;;10.48;7.62;;;19.50;69.60;;;;;;2373256;56;21102;-73
2022/06/09 05:12:39;;;;;;;11.85;7.40;;;19.50;69.70;;;;;;2373502;56;21054;-75
2022/06/09 05:15:11;;;;;;;9.48;6.78;;;19.50;69.60;;;;;;2372967;56;21126;-76
2022/06/09 05:17:39;;;;;;;12.57;8.43;;;19.50;69.40;;;;;;2626260;52;21522;-74
2022/06/09 05:20:10;;;;;;;10.57;7.75;;;19.60;69.70;;;;;;2374094;56;21530;-73
2022/06/09 05:22:38;;;;;;;11.10;7.55;;;19.60;70.00;;;;;;2374251;56;21043;-73
2022/06/09 05:25:06;;;;;;;11.02;7.47;;;19.60;70.30;;;;;;2373225;56;21050;-74
2022/06/09 05:27:35;;;;;;;16.15;9.68;;;19.60;70.00;;;;;;2373651;56;21134;-72
2022/06/09 05:30:03;;;;;;;13.93;8.38;;;19.70;69.50;;;;;;2374226;56;21118;-73
2022/06/09 05:32:30;;;;;;;12.18;8.50;;;19.70;69.50;;;;;;2627203;52;21632;-73
2022/06/09 05:34:58;;;;;;;14.45;8.80;;;19.70;69.40;;;;;;2373848;56;21114;-73
2022/06/09 05:44:50;;;;;;;16.67;10.25;;;19.60;69.50;;;;;;2374017;56;21039;-73
2022/06/09 05:45:11;;;;;;;13.35;8.80;;;19.60;69.80;;;;;;2372115;56;21046;-74
2022/06/09 05:47:38;;;;;;;16.98;10.95;;;19.60;69.10;;;;;;2373617;56;21055;-74
2022/06/09 05:50:09;;;;;;;16.27;9.95;;;19.60;70.00;;;;;;2373805;56;21597;-73
2022/06/09 05:52:37;;;;;;;13.25;9.52;;;19.60;70.40;;;;;;2374066;56;21122;-73
2022/06/09 05:55:07;;;;;;;13.95;10.35;;;19.60;70.10;;;;;;2373341;56;21035;-74
2022/06/09 05:57:37;;;;;;;18.58;11.60;;;19.70;69.90;;;;;;2374253;56;21047;-74
2022/06/09 06:00:07;;;;;;;14.57;10.68;;;19.70;70.10;;;;;;2505266;54;69862;-83
2022/06/09 06:02:34;;;;;;;14.27;10.45;;;19.70;69.90;;;;;;2544510;54;21117;-83
2022/06/09 06:05:02;;;;;;;14.57;10.88;;;19.70;70.10;;;;;;2544270;54;21617;-83
2022/06/09 06:07:29;;;;;;;15.95;10.43;;;19.70;69.30;;;;;;2306347;58;21086;-83
2022/06/09 06:09:57;;;;;;;17.85;10.93;;;19.80;69.10;;;;;;2305648;58;21069;-83
2022/06/09 06:12:25;;;;;;;16.02;10.45;;;19.80;69.70;;;;;;2305947;58;21067;-82
2022/06/09 06:14:52;;;;;;;14.30;10.25;;;19.80;69.90;;;;;;2542389;54;21038;-82
2022/06/09 06:17:20;;;;;;;18.23;11.23;;;19.80;69.50;;;;;;2541084;54;21046;-81
2022/06/09 06:19:47;;;;;;;16.58;11.40;;;19.80;69.60;;;;;;2303184;58;21054;-83
2022/06/09 06:22:14;;;;;;;12.45;10.07;;;19.90;69.90;;;;;;2543690;54;21115;-83
2022/06/09 06:24:42;;;;;;;14.25;10.30;;;19.90;69.90;;;;;;2543725;54;21127;-83
2022/06/09 06:27:09;;;;;;;13.65;9.98;;;19.90;70.20;;;;;;2543325;54;21079;-83
2022/06/09 06:29:37;;;;;;;15.88;11.38;;;19.90;70.20;;;;;;2305761;58;21062;-83
2022/06/09 06:32:06;;;;;;;15.93;11.07;;;20.00;69.70;;;;;;2543285;54;21062;-82
2022/06/09 06:34:33;;;;;;;14.38;10.15;;;20.00;69.50;;;;;;2543044;54;21107;-82
2022/06/09 06:37:00;;;;;;;15.40;9.20;;;20.00;69.00;;;;;;2542573;54;21142;-82
2022/06/09 06:39:28;;;;;;;14.18;9.40;;;20.00;68.70;;;;;;2542688;54;21113;-83
2022/06/09 06:41:55;;;;;;;15.10;9.95;;;19.90;68.80;;;;;;2543269;54;21118;-83
2022/06/09 06:44:23;;;;;;;15.32;8.98;;;19.90;69.00;;;;;;2305202;58;21153;-83
2022/06/09 06:46:50;;;;;;;13.05;8.68;;;19.90;68.90;;;;;;2305535;58;21125;-83
2022/06/09 06:49:17;;;;;;;13.18;8.05;;;19.90;69.00;;;;;;2304759;58;21078;-82
2022/06/09 06:51:45;;;;;;;10.60;6.68;;;19.90;69.00;;;;;;2542923;54;21102;-83
2022/06/09 06:54:12;;;;;;;8.35;5.10;;;20.00;68.40;;;;;;2305124;58;21170;-82
2022/06/09 06:56:39;;;;;;;6.37;4.00;;;19.90;67.20;;;;;;2304514;58;21078;-83
2022/06/09 06:59:07;;;;;;;5.87;4.20;;;19.90;67.10;;;;;;2541796;54;21590;-82
2022/06/09 07:01:35;;;;;;;6.18;3.78;;;19.90;67.50;;;;;;2305001;58;21058;-82
2022/06/09 07:04:03;;;;;;;5.60;3.20;;;19.90;67.30;;;;;;2304710;58;21118;-82
2022/06/09 07:06:30;;;;;;;4.00;2.65;;;19.90;67.30;;;;;;2542927;54;21066;-83
2022/06/09 07:08:57;;;;;;;5.05;2.83;;;19.90;67.30;;;;;;2305031;58;21086;-82
2022/06/09 07:11:25;;;;;;;5.00;2.67;;;20.00;67.10;;;;;;2305288;58;21149;-82
2022/06/09 07:13:52;;;;;;;5.07;3.08;;;20.00;67.10;;;;;;2543031;54;21155;-82
2022/06/09 07:16:20;;;;;;;2.83;2.20;;;20.00;67.10;;;;;;2304755;58;21058;-82
2022/06/09 07:18:48;;;;;;;4.87;2.50;;;20.10;67.10;;;;;;2305343;58;21070;-82
2022/06/09 07:21:16;;;;;;;2.70;2.37;;;20.10;66.60;;;;;;2304981;58;21437;-82
2022/06/09 07:23:45;;;;;;;4.00;2.40;;;20.10;66.10;;;;;;2305211;58;21062;-83
2022/06/09 07:26:13;;;;;;;4.60;2.20;;;20.20;66.10;;;;;;2542003;54;21122;-83
2022/06/09 07:28:41;;;;;;;4.05;2.42;;;20.10;64.70;;;;;;2304518;58;21082;-84
2022/06/09 07:31:09;;;;;;;2.22;1.77;;;20.10;64.60;;;;;;2304669;58;21134;-83
2022/06/09 07:33:38;;;;;;;2.90;1.52;;;20.10;64.80;;;;;;2304295;58;21082;-82
2022/06/09 07:36:10;;;;;;;2.62;1.73;;;20.10;65.10;;;;;;2541664;54;21061;-83
2022/06/09 07:38:37;;;;;;;2.37;1.98;;;20.10;64.50;;;;;;2542494;54;21551;-82
2022/06/09 07:41:05;;;;;;;3.62;2.35;;;20.00;64.80;;;;;;2541485;54;21642;-82
2022/06/09 07:43:33;;;;;;;2.42;2.10;;;20.10;64.70;;;;;;2304406;58;21126;-82
2022/06/09 07:46:00;;;;;;;2.25;1.85;;;20.20;64.70;;;;;;2304088;58;21102;-82
2022/06/09 07:48:28;;;;;;;1.70;1.60;;;20.20;64.50;;;;;;2304204;58;21098;-82
2022/06/09 07:50:56;;;;;;;3.15;1.90;;;20.30;64.60;;;;;;2541687;54;21058;-83
2022/06/09 07:53:26;;;;;;;3.35;1.60;;;20.30;64.80;;;;;;2304302;58;21611;-83
2022/06/09 07:55:53;;;;;;;2.20;2.00;;;20.40;64.20;;;;;;2303922;58;21670;-81
2022/06/09 07:58:20;;;;;;;2.20;2.00;;;20.40;63.70;;;;;;2541886;54;21185;-82
2022/06/09 08:00:48;;;;;;;2.10;1.90;;;20.50;63.90;;;;;;2541068;54;21071;-83
2022/06/09 08:03:19;;;;;;;1.80;1.70;;;20.50;63.70;;;;;;2541904;54;21161;-82
2022/06/09 08:05:47;;;;;;;2.40;2.20;;;20.50;64.50;;;;;;2541279;54;21595;-82
2022/06/09 08:08:15;;;;;;;3.10;2.80;;;20.60;64.10;;;;;;2303963;58;21069;-82
2022/06/09 08:10:43;;;;;;;4.62;2.87;;;20.60;63.50;;;;;;2541161;54;21135;-82
2022/06/09 08:13:11;;;;;;;3.35;3.05;;;20.60;63.40;;;;;;2542067;54;21149;-82
2022/06/09 08:15:42;;;;;;;2.62;2.42;;;20.50;63.10;;;;;;2303511;58;21947;-82
2022/06/09 08:18:09;;;;;;;3.00;2.37;;;20.50;63.30;;;;;;2541654;54;21114;-82
2022/06/09 08:20:40;;;;;;;2.80;2.40;;;20.50;63.80;;;;;;2303887;58;21050;-83
2022/06/09 08:23:10;;;;;;;3.37;2.70;;;20.50;64.20;;;;;;2542531;54;22539;-82
2022/06/09 08:25:39;;;;;;;2.62;2.30;;;20.50;63.50;;;;;;2304385;58;21074;-82
2022/06/09 08:28:08;;;;;;;3.12;2.70;;;20.50;64.20;;;;;;2304374;58;21066;-82
2022/06/09 08:30:36;;;;;;;5.20;2.80;;;20.60;63.00;;;;;;2541815;54;21107;-82
2022/06/09 08:33:04;;;;;;;3.87;2.80;;;20.50;62.70;;;;;;2303209;58;21078;-83
2022/06/09 08:35:34;;;;;;;5.20;3.08;;;20.50;62.80;;;;;;2304085;58;21090;-81
2022/06/09 08:38:01;;;;;;;3.60;3.05;;;20.50;63.00;;;;;;2541960;54;21135;-80
2022/06/09 08:40:35;;;;;;;3.67;2.83;;;20.40;63.00;;;;;;2542174;54;21054;-82
2022/06/09 08:43:12;;;;;;;4.30;3.37;;;20.50;62.90;;;;;;2304029;58;21102;-81
2022/06/09 08:45:42;;;;;;;8.10;3.35;;;20.40;63.00;;;;;;2303737;58;21130;-82
2022/06/09 08:48:18;;;;;;;3.95;2.72;;;20.50;63.40;;;;;;2303402;58;21501;-82
2022/06/09 08:50:54;;;;;;;3.42;2.85;;;20.50;64.20;;;;;;2542240;54;21046;-82
2022/06/09 08:53:27;;;;;;;3.33;2.97;;;20.60;63.60;;;;;;2542916;54;21125;-83
2022/06/09 08:55:58;;;;;;;6.00;3.07;;;20.70;63.50;;;;;;2542931;54;21039;-82
2022/06/09 08:58:30;;;;;;;3.67;3.20;;;20.70;63.20;;;;;;2304554;58;21058;-82
2022/06/09 09:01:05;;;;;;;3.95;3.28;;;20.70;62.70;;;;;;2542289;54;21515;-83
2022/06/09 09:03:36;;;;;;;5.10;3.08;;;20.80;62.70;;;;;;2304614;58;21113;-82
2022/06/09 09:06:11;;;;;;;4.70;3.40;;;20.90;62.40;;;;;;2541491;54;21073;-83
2022/06/09 09:08:39;;;;;;;3.40;3.10;;;20.90;61.70;;;;;;2304765;58;21091;-82
2022/06/09 09:11:37;;;;;;;3.75;2.72;;;21.00;61.70;;;;;;2304541;58;21067;-82
2022/06/09 09:14:11;;;;;;;5.45;2.80;;;21.00;61.50;;;;;;2541887;54;21054;-81
2022/06/09 09:16:45;;;;;;;2.85;2.58;;;21.00;61.70;;;;;;2304222;58;21085;-82
2022/06/09 09:19:25;;;;;;;4.75;2.65;;;21.10;61.50;;;;;;2542337;54;21447;-82
2022/06/09 09:22:04;;;;;;;2.90;2.60;;;21.10;61.60;;;;;;2541536;54;21099;-81
2022/06/09 09:24:44;;;;;;;2.87;2.47;;;21.10;61.60;;;;;;2304198;58;21618;-81
2022/06/09 09:27:26;;;;;;;5.90;2.90;;;21.10;61.60;;;;;;2304014;58;21117;-82
2022/06/09 09:30:02;;;;;;;3.40;3.10;;;21.20;61.70;;;;;;2541923;54;21074;-82
2022/06/09 09:32:40;;;;;;;4.47;3.80;;;21.20;61.60;;;;;;2541281;54;21074;-82
2022/06/09 09:35:15;;;;;;;5.12;3.05;;;21.20;61.20;;;;;;2541665;54;21201;-81
2022/06/09 09:37:46;;;;;;;4.62;3.55;;;21.30;61.50;;;;;;2541510;54;21059;-81
2022/06/09 09:43:10;;;;;;;3.92;3.40;;;21.30;61.30;;;;;;2355709;57;22046;-74
2022/06/09 09:45:41;;;;;;;4.32;2.90;;;21.40;62.30;;;;;;2594974;53;21056;-74
2022/06/09 09:48:31;;;;;;;3.33;2.65;;;21.40;62.00;;;;;;2352987;56;21106;-74
2022/06/09 09:51:01;;;;;;;2.97;2.58;;;21.50;61.80;;;;;;2375353;56;21106;-73
2022/06/09 09:53:32;;;;;;;4.35;3.20;;;21.60;61.10;;;;;;2375148;56;21038;-72
2022/06/09 09:56:01;;;;;;;3.22;2.47;;;21.60;60.30;;;;;;2374897;56;21505;-74
2022/06/09 09:58:34;;;;;;;3.75;2.85;;;21.60;60.70;;;;;;2374802;56;21053;-73
2022/06/09 10:01:05;;;;;;;3.10;2.80;;;21.60;60.50;;;;;;2374931;56;21110;-74
2022/06/09 10:09:24;;;;;;;3.83;2.97;;;21.70;59.70;;;;;;2375299;56;20987;-74
2022/06/09 10:11:57;;;;;;;3.92;2.75;;;21.80;60.40;;;;;;2374955;56;21055;-73
2022/06/09 10:14:31;;;;;;;;;;;21.80;60.50;;;;;;2378159;56;21035;-74
2022/06/09 10:17:00;;;;;;;4.68;2.80;;;21.90;60.50;;;;;;2374973;56;20121;-74
2022/06/09 10:19:33;;;;;;;3.65;2.97;;;22.00;59.70;;;;;;2375107;56;21047;-73
2022/06/09 10:22:03;;;;;;;3.83;2.80;;;22.00;59.70;;;;;;2374374;56;21557;-73
2022/06/09 10:24:46;;;;;;;4.65;2.75;;;22.10;59.70;;;;;;2375252;56;21114;-73
2022/06/09 10:27:19;;;;;;;3.87;2.45;;;22.10;59.40;;;;;;2375384;56;21628;-74
2022/06/09 10:29:54;;;;;;;4.15;2.95;;;22.10;59.70;;;;;;2375360;56;21688;-73
2022/06/09 10:32:27;;;;;;;3.00;2.40;;;22.10;59.50;;;;;;2628575;52;21058;-73
2022/06/09 10:35:01;;;;;;;5.35;3.30;;;22.10;59.00;;;;;;2629396;52;21097;-74
2022/06/09 10:37:40;;;;;;;2.85;2.62;;;22.20;59.30;;;;;;2628505;52;21386;-74
2022/06/09 10:40:15;;;;;;;3.58;2.72;;;22.20;59.00;;;;;;2374411;56;21109;-74
2022/06/09 10:42:52;;;;;;;4.45;3.25;;;22.30;59.00;;;;;;2374478;56;21510;-73
2022/06/09 10:45:25;;;;;;;3.92;3.03;;;22.30;58.60;;;;;;2628509;52;21103;-74
2022/06/09 10:56:47;;;;;;;2.72;2.15;;;22.60;58.50;;;;;;2347175;57;21005;-73
2022/06/09 10:59:20;;;;;;;3.37;2.28;;;22.70;59.20;;;;;;2365664;56;21122;-73
2022/06/09 11:01:47;;;;;;;1.80;1.60;;;22.70;58.90;;;;;;2375515;56;21054;-74
2022/06/09 11:04:17;;;;;;;4.35;2.47;;;22.80;58.20;;;;;;2374420;56;21715;-74
2022/06/09 11:07:15;;;;;;;2.90;2.05;;;22.80;57.70;;;;;;2628430;52;21047;-74
2022/06/09 11:09:55;;;;;;;2.47;1.90;;;22.80;57.30;;;;;;2375136;56;21039;-74
2022/06/09 11:12:34;;;;;;;3.92;1.55;;;22.70;57.30;;;;;;2629015;52;21047;-74
2022/06/09 11:15:21;;;;;;;4.20;2.25;;;22.70;57.30;;;;;;2375227;56;21063;-74
2022/06/09 11:18:09;;;;;;;3.70;1.98;;;22.50;56.70;;;;;;2628941;52;21095;-74
2022/06/09 11:20:51;;;;;;;4.15;2.20;;;22.50;56.90;;;;;;2374548;56;21541;-74
2022/06/09 11:23:32;;;;;;;2.75;1.90;;;22.60;57.30;;;;;;2374677;56;21055;-74
2022/06/09 11:26:11;;;;;;;4.03;2.90;;;22.70;58.10;;;;;;2375005;56;21505;-75
2022/06/09 11:28:48;;;;;;;3.12;2.53;;;22.90;56.50;;;;;;2374993;56;21059;-74
2022/06/09 11:31:37;;;;;;;2.95;2.62;;;23.00;56.30;;;;;;2375366;56;21051;-74
2022/06/09 11:34:27;;;;;;;2.90;2.60;;;23.10;56.00;;;;;;2628181;52;21525;-75
2022/06/09 11:37:02;;;;;;;4.35;2.80;;;23.00;55.50;;;;;;2374574;56;21516;-74
2022/06/09 11:39:48;;;;;;;2.67;2.25;;;23.00;55.40;;;;;;2375446;56;21039;-74
2022/06/09 11:42:27;;;;;;;3.00;2.40;;;22.90;55.20;;;;;;2628606;52;21066;-73
2022/06/09 11:44:57;;;;;;;2.83;2.45;;;22.90;55.30;;;;;;2373557;56;21394;-73
2022/06/09 11:47:31;;;;;;;2.58;2.10;;;22.90;55.20;;;;;;2374031;56;21074;-74
2022/06/09 11:50:04;;;;;;;3.78;2.20;;;22.90;55.90;;;;;;2375093;56;21038;-74
2022/06/09 11:52:39;;;;;;;3.15;2.40;;;22.90;56.50;;;;;;2375640;56;21040;-74
2022/06/09 11:55:27;;;;;;;7.03;2.65;;;23.00;55.40;;;;;;2375202;56;21081;-74
2022/06/09 11:57:55;;;;;;;2.03;1.60;;;22.90;55.20;;;;;;2375499;56;21182;-76
2022/06/09 12:00:42;;;;;;;2.92;1.80;;;22.90;54.60;;;;;;2374597;56;21596;-75
2022/06/09 12:06:32;;;;;;;5.05;1.67;;;23.00;54.30;;;;;;2355009;57;22066;-75
2022/06/09 12:09:08;;;;;;;2.10;1.77;;;23.10;54.20;;;;;;2362798;56;21114;-74
2022/06/09 12:11:56;;;;;;;2.80;1.95;;;23.10;53.50;;;;;;2628635;52;21523;-74
2022/06/09 12:14:28;;;;;;;3.17;1.65;;;23.20;53.30;;;;;;2375204;56;21250;-74
2022/06/09 12:19:54;;;;;;;4.22;1.50;;;23.30;53.80;;;;;;2313036;57;27886;-74
2022/06/09 12:22:59;;;;;;;2.30;1.55;;;23.30;52.80;;;;;;2347658;57;21018;-74
2022/06/09 12:25:33;;;;;;;2.58;1.95;;;23.20;52.80;;;;;;2347146;57;21623;-73
2022/06/09 12:28:03;;;;;;;1.80;1.70;;;23.10;52.60;;;;;;2347790;57;21054;-73
2022/06/09 12:30:38;;;;;;;2.62;1.80;;;23.20;53.30;;;;;;2347569;57;21646;-74
2022/06/09 12:33:29;;;;;;;2.25;2.00;;;23.30;54.00;;;;;;2347741;57;21037;-74
2022/06/09 12:36:02;;;;;;;5.32;2.35;;;23.50;53.30;;;;;;2593643;53;21148;-72
2022/06/09 12:38:31;;;;;;;;;;;23.50;52.80;;;;;;2351184;57;21026;-75
2022/06/09 12:41:02;;;;;;;3.65;1.60;;;23.50;53.50;;;;;;2347249;57;20293;-74
2022/06/09 12:43:34;;;;;;;2.47;1.77;;;23.60;53.70;;;;;;2347780;57;21555;-74
2022/06/09 12:46:22;;;;;;;1.97;1.77;;;23.70;52.80;;;;;;2347495;57;21030;-75
2022/06/09 12:48:52;;;;;;;2.45;2.25;;;23.70;52.80;;;;;;2347230;57;21108;-73
2022/06/09 12:51:23;;;;;;;3.67;2.00;;;23.70;52.60;;;;;;2345518;57;21112;-74
2022/06/09 12:54:04;;;;;;;2.80;2.22;;;23.70;53.10;;;;;;2345991;57;21128;-74
2022/06/09 12:56:40;;;;;;;2.10;1.90;;;23.70;52.50;;;;;;2346615;57;21540;-74
2022/06/09 12:59:23;;;;;;;1.58;1.48;;;23.80;52.60;;;;;;2347015;57;21049;-74
2022/06/09 13:01:53;;;;;;;1.48;1.37;;;24.00;53.70;;;;;;2347018;57;21625;-74
2022/06/09 13:04:25;;;;;;;1.75;1.33;;;24.00;53.10;;;;;;2346737;57;21109;-74
2022/06/09 13:06:56;;;;;;;4.10;2.00;;;24.00;52.10;;;;;;2346526;57;21070;-75
2022/06/09 13:09:27;;;;;;;3.97;1.65;;;24.00;51.30;;;;;;2347654;57;21050;-74
2022/06/09 13:14:48;;;;;;;1.92;1.30;;;23.90;50.90;;;;;;2347942;57;20981;-74
2022/06/09 13:17:19;;;;;;;1.77;1.40;;;23.90;51.00;;;;;;2347689;57;21128;-74
2022/06/09 13:19:56;;;;;;;1.50;1.40;;;23.80;51.00;;;;;;2347608;57;21062;-74
2022/06/09 13:22:26;;;;;;;1.33;1.20;;;23.70;51.00;;;;;;2344904;57;21041;-73
2022/06/09 13:24:54;;;;;;;2.17;1.35;;;23.60;50.80;;;;;;2345381;57;21104;-74
2022/06/09 13:27:25;;;;;;;2.35;1.27;;;23.70;51.60;;;;;;2345618;57;21092;-74
2022/06/09 13:30:01;;;;;;;2.10;1.23;;;23.70;50.80;;;;;;2347322;57;21033;-75
2022/06/09 13:32:37;;;;;;;1.75;1.52;;;23.80;50.40;;;;;;2346246;57;21101;-74
2022/06/09 13:35:29;;;;;;;3.20;1.33;;;23.90;50.30;;;;;;2593733;53;21041;-74
2022/06/09 13:38:06;;;;;;;1.92;1.27;;;23.90;49.80;;;;;;2346341;57;21053;-74
2022/06/09 13:40:46;;;;;;;2.53;1.80;;;24.00;50.50;;;;;;2592834;53;21161;-73
2022/06/09 13:43:24;;;;;;;2.45;1.48;;;24.10;51.00;;;;;;2346484;57;21037;-74
2022/06/09 13:45:55;;;;;;;2.15;1.20;;;24.20;50.30;;;;;;2346102;57;21037;-74